createdAt,value
2018-08-24T00:00:06.252Z,12.33
2018-08-24T00:02:35.482Z,13.32
2018-08-24T00:05:04.692Z,11.90
2018-08-24T00:07:33.861Z,10.55
2018-08-24T00:10:03.048Z,12.05
2018-08-24T00:12:32.393Z,12.68
2018-08-24T00:15:01.597Z,10.05
2018-08-24T00:17:31.741Z,11.80
2018-08-24T00:20:01.681Z,11.00
2018-08-24T00:22:31.645Z,10.98
2018-08-24T00:25:00.888Z,9.75
2018-08-24T00:27:30.040Z,11.20
2018-08-24T00:29:59.200Z,11.22
2018-08-24T00:32:28.475Z,11.15
2018-08-24T00:34:57.699Z,12.53
2018-08-24T00:37:27.471Z,11.48
2018-08-24T00:39:56.632Z,10.85
2018-08-24T00:42:25.797Z,11.50
2018-08-24T00:44:54.960Z,10.63
2018-08-24T00:47:24.196Z,10.58
2018-08-24T00:49:53.350Z,10.93
2018-08-24T00:52:21.975Z,9.73
2018-08-24T00:54:50.569Z,12.57
2018-08-24T00:57:19.270Z,14.03
2018-08-24T00:59:47.932Z,11.40
2018-08-24T01:02:16.545Z,13.93
2018-08-24T01:04:45.136Z,12.30
2018-08-24T01:07:14.773Z,12.67
2018-08-24T01:09:43.943Z,11.70
2018-08-24T01:12:15.584Z,11.30
2018-08-24T01:14:46.343Z,10.63
2018-08-24T01:17:20.210Z,11.00
2018-08-24T01:19:49.224Z,10.97
2018-08-24T01:22:18.184Z,10.50
2018-08-24T01:24:46.763Z,11.50
2018-08-24T01:27:15.374Z,12.43
2018-08-24T01:29:44.296Z,12.20
2018-08-24T01:32:14.684Z,9.80
2018-08-24T01:34:43.368Z,8.37
2018-08-24T01:37:11.935Z,11.67
2018-08-24T01:39:40.574Z,9.93
2018-08-24T01:42:09.144Z,12.27
2018-08-24T01:44:37.804Z,14.10
2018-08-24T01:47:06.840Z,11.77
2018-08-24T01:49:35.685Z,12.80
2018-08-24T01:52:04.800Z,10.40
2018-08-24T01:54:35.990Z,11.23
2018-08-24T01:57:04.725Z,12.23
2018-08-24T01:59:33.460Z,14.33
2018-08-24T02:02:02.195Z,14.40
2018-08-24T02:04:32.954Z,12.80
2018-08-24T02:07:01.718Z,12.50
2018-08-24T02:09:30.596Z,11.77
2018-08-24T02:11:59.580Z,11.13
2018-08-24T02:14:33.620Z,13.90
2018-08-24T02:17:02.511Z,9.23
2018-08-24T02:19:36.340Z,9.87
2018-08-24T02:22:10.085Z,9.40
2018-08-24T02:24:38.760Z,12.27
2018-08-24T02:27:07.592Z,10.33
2018-08-24T02:29:38.476Z,12.87
2018-08-24T02:32:07.772Z,9.83
2018-08-24T02:34:36.387Z,9.53
2018-08-24T02:37:05.087Z,10.27
2018-08-24T02:39:35.952Z,10.03
2018-08-24T02:42:04.543Z,11.07
2018-08-24T02:44:33.109Z,10.53
2018-08-24T02:47:01.976Z,12.60
2018-08-24T02:49:30.586Z,10.97
2018-08-24T02:51:59.452Z,11.00
2018-08-24T02:54:28.064Z,13.00
2018-08-24T02:56:56.666Z,11.40
2018-08-24T02:59:25.412Z,11.53
2018-08-24T03:01:53.993Z,12.27
2018-08-24T03:04:22.652Z,13.60
2018-08-24T03:06:51.348Z,11.53
2018-08-24T03:09:21.755Z,11.43
2018-08-24T03:11:51.240Z,11.43
2018-08-24T03:14:19.969Z,12.43
2018-08-24T03:16:53.996Z,12.83
2018-08-24T03:19:22.659Z,12.57
2018-08-24T03:21:51.348Z,12.40
2018-08-24T03:24:19.986Z,12.73
2018-08-24T03:26:48.701Z,12.13
2018-08-24T03:29:17.341Z,13.97
2018-08-24T03:31:47.021Z,11.97
2018-08-24T03:34:15.616Z,12.10
2018-08-24T03:36:44.244Z,13.70
2018-08-24T03:39:12.904Z,12.33
2018-08-24T03:41:41.796Z,16.70
2018-08-24T03:44:10.439Z,13.23
2018-08-24T03:46:39.069Z,13.60
2018-08-24T03:49:07.673Z,15.00
2018-08-24T03:51:36.240Z,14.33
2018-08-24T03:54:09.224Z,15.60
2018-08-24T03:56:38.243Z,15.20
2018-08-24T03:59:06.821Z,12.73
2018-08-24T04:01:35.460Z,12.73
2018-08-24T04:04:04.323Z,13.30
2018-08-24T04:06:32.960Z,14.93
2018-08-24T04:09:01.534Z,14.60
2018-08-24T04:11:30.212Z,15.67
2018-08-24T04:13:58.867Z,17.33
2018-08-24T04:16:27.696Z,12.37
2018-08-24T04:18:56.310Z,13.40
2018-08-24T04:21:24.892Z,15.80
2018-08-24T04:23:53.485Z,13.20
2018-08-24T04:26:22.188Z,14.87
2018-08-24T04:28:50.805Z,13.43
2018-08-24T04:31:19.425Z,13.20
2018-08-24T04:33:48.143Z,15.13
2018-08-24T04:36:16.712Z,13.10
2018-08-24T04:38:45.365Z,12.27
2018-08-24T04:41:14.315Z,15.23
2018-08-24T04:43:42.993Z,13.07
2018-08-24T04:46:11.648Z,13.83
2018-08-24T04:48:40.303Z,13.17
2018-08-24T04:51:08.934Z,15.88
2018-08-24T04:53:37.748Z,11.17
2018-08-24T04:56:07.636Z,13.48
2018-08-24T04:58:36.403Z,11.50
2018-08-24T05:01:05.022Z,14.57
2018-08-24T05:03:34.277Z,12.35
2018-08-24T05:06:03.289Z,13.47
2018-08-24T05:08:32.734Z,12.28
2018-08-24T05:11:01.969Z,17.40
2018-08-24T05:13:31.535Z,18.25
2018-08-24T05:16:01.411Z,12.50
2018-08-24T05:18:30.576Z,11.53
2018-08-24T05:20:59.800Z,13.88
2018-08-24T05:23:28.968Z,14.20
2018-08-24T05:25:58.108Z,13.90
2018-08-24T05:28:27.330Z,11.25
2018-08-24T05:30:56.722Z,14.63
2018-08-24T05:33:26.137Z,17.52
2018-08-24T05:35:55.303Z,14.23
2018-08-24T05:38:24.476Z,22.98
2018-08-24T05:40:53.700Z,17.20
2018-08-24T05:43:22.884Z,17.55
2018-08-24T05:45:52.144Z,17.30
2018-08-24T05:48:21.498Z,13.88
2018-08-24T05:50:50.709Z,12.13
2018-08-24T05:53:19.868Z,11.50
2018-08-24T05:55:49.049Z,11.73
2018-08-24T05:58:18.462Z,16.10
2018-08-24T06:00:47.625Z,18.70
2018-08-24T06:03:16.831Z,12.43
2018-08-24T06:05:51.303Z,10.85
2018-08-24T06:08:20.594Z,10.53
2018-08-24T06:10:49.916Z,9.33
2018-08-24T06:13:19.921Z,10.55
2018-08-24T06:15:50.194Z,8.23
2018-08-24T06:18:19.581Z,11.28
2018-08-24T06:20:48.719Z,8.73
2018-08-24T06:23:17.995Z,8.43
2018-08-24T06:25:46.912Z,10.00
2018-08-24T06:28:15.852Z,8.00
2018-08-24T06:30:44.732Z,8.67
2018-08-24T06:33:13.821Z,8.27
2018-08-24T06:35:42.680Z,8.60
2018-08-24T06:38:11.559Z,8.50
2018-08-24T06:40:41.070Z,8.47
2018-08-24T06:43:10.121Z,8.47
2018-08-24T06:45:39.003Z,9.83
2018-08-24T06:48:07.880Z,9.73
2018-08-24T06:50:36.766Z,8.60
2018-08-24T06:53:05.860Z,7.87
2018-08-24T06:55:34.909Z,8.00
2018-08-24T06:58:04.199Z,8.23
2018-08-24T07:00:33.868Z,7.00
2018-08-24T07:03:03.157Z,8.83
2018-08-24T07:05:32.482Z,7.73
2018-08-24T07:08:01.426Z,9.80
2018-08-24T07:10:30.557Z,7.30
2018-08-24T07:12:59.602Z,7.07
2018-08-24T07:15:28.710Z,9.73
2018-08-24T07:18:03.764Z,7.83
2018-08-24T07:20:32.904Z,8.47
2018-08-24T07:23:01.915Z,6.43
2018-08-24T07:25:30.784Z,6.67
2018-08-24T07:27:59.789Z,6.60
2018-08-24T07:30:28.799Z,6.27
2018-08-24T07:32:57.760Z,7.60
2018-08-24T07:35:26.698Z,8.43
2018-08-24T07:37:55.646Z,9.77
2018-08-24T07:40:24.560Z,8.00
2018-08-24T07:42:53.483Z,7.13
2018-08-24T07:45:22.357Z,8.60
2018-08-24T07:47:51.249Z,5.80
2018-08-24T07:50:20.153Z,9.50
2018-08-24T07:52:49.076Z,7.10
2018-08-24T07:55:17.984Z,7.13
2018-08-24T07:57:46.863Z,7.93
2018-08-24T08:00:15.804Z,8.93
2018-08-24T08:02:45.238Z,7.43
2018-08-24T08:05:14.561Z,6.93
2018-08-24T08:07:43.791Z,6.13
2018-08-24T08:10:12.724Z,8.07
2018-08-24T08:12:41.644Z,9.17
2018-08-24T08:15:11.487Z,6.00
2018-08-24T08:17:41.781Z,7.43
2018-08-24T08:20:11.144Z,6.17
2018-08-24T08:22:40.204Z,6.43
2018-08-24T08:25:09.172Z,5.97
2018-08-24T08:27:38.105Z,7.17
2018-08-24T08:30:07.472Z,6.97
2018-08-24T08:32:36.436Z,7.03
2018-08-24T08:35:06.325Z,7.55
2018-08-24T08:37:35.508Z,9.50
2018-08-24T08:40:04.808Z,13.93
2018-08-24T08:42:33.972Z,14.23
2018-08-24T08:45:03.248Z,14.28
2018-08-24T08:47:32.513Z,14.68
2018-08-24T08:50:01.933Z,10.15
2018-08-24T08:52:31.093Z,11.20
2018-08-24T08:55:00.244Z,9.30
2018-08-24T08:57:29.646Z,9.68
2018-08-24T08:59:58.908Z,9.85
2018-08-24T09:02:28.136Z,10.93
2018-08-24T09:04:57.295Z,9.28
2018-08-24T09:07:26.737Z,10.85
2018-08-24T09:09:56.504Z,10.45
2018-08-24T09:12:25.692Z,8.38
2018-08-24T09:14:55.012Z,12.88
2018-08-24T09:17:29.575Z,11.97
2018-08-24T09:20:04.070Z,10.63
2018-08-24T09:23:38.243Z,7.60
2018-08-24T09:26:12.953Z,8.08
2018-08-24T09:28:42.352Z,8.08
2018-08-24T09:31:18.092Z,7.58
2018-08-24T09:33:47.881Z,8.48
2018-08-24T09:36:19.453Z,8.18
2018-08-24T09:38:49.542Z,8.03
2018-08-24T09:41:18.776Z,8.38
2018-08-24T09:43:53.313Z,7.08
2018-08-24T09:46:27.847Z,8.13
2018-08-24T09:49:02.394Z,6.83
2018-08-24T09:51:31.887Z,6.15
2018-08-24T09:54:01.674Z,6.67
2018-08-24T09:56:31.976Z,6.42
2018-08-24T09:59:01.570Z,7.25
2018-08-24T10:01:35.998Z,6.58
2018-08-24T10:04:10.606Z,6.42
2018-08-24T10:06:45.062Z,6.47
2018-08-24T10:09:15.389Z,7.03
2018-08-24T10:11:44.664Z,7.72
2018-08-24T10:14:13.845Z,6.37
2018-08-24T10:16:43.344Z,6.10
2018-08-24T10:19:13.736Z,6.87
2018-08-24T10:21:43.104Z,7.30
2018-08-24T10:24:12.427Z,7.28
2018-08-24T10:26:41.692Z,6.28
2018-08-24T10:29:10.919Z,7.45
2018-08-24T10:31:40.256Z,6.30
2018-08-24T10:34:09.453Z,5.72
2018-08-24T10:36:38.802Z,5.83
2018-08-24T10:39:10.351Z,6.50
2018-08-24T10:41:39.928Z,5.97
2018-08-24T10:44:09.242Z,6.58
2018-08-24T11:00:19.156Z,7.45
2018-08-24T11:02:48.325Z,6.15
2018-08-24T11:05:17.546Z,9.00
2018-08-24T11:07:46.802Z,7.30
2018-08-24T11:10:16.213Z,7.10
2018-08-24T11:12:45.675Z,6.62
2018-08-24T11:15:14.857Z,6.78
2018-08-24T11:17:49.513Z,6.53
2018-08-24T11:20:18.759Z,8.73
2018-08-24T11:22:48.130Z,6.35
2018-08-24T11:25:17.310Z,6.10
2018-08-24T11:27:46.563Z,9.95
2018-08-24T11:30:15.820Z,7.03
2018-08-24T11:32:45.059Z,8.85
2018-08-24T11:35:14.329Z,7.90
2018-08-24T11:37:43.536Z,6.42
2018-08-24T11:40:12.692Z,7.20
2018-08-24T11:42:41.889Z,5.83
2018-08-24T11:45:11.233Z,5.35
2018-08-24T11:47:40.424Z,6.97
2018-08-24T11:50:09.800Z,6.10
2018-08-24T11:52:38.998Z,7.17
2018-08-24T11:55:08.245Z,11.90
2018-08-24T11:57:37.411Z,6.97
2018-08-24T12:00:06.836Z,7.60
2018-08-24T12:02:36.032Z,6.35
2018-08-24T12:05:05.684Z,9.43
2018-08-24T12:07:34.983Z,6.47
2018-08-24T12:10:04.756Z,10.45
2018-08-24T12:12:34.034Z,7.85
2018-08-24T12:15:03.410Z,6.08
2018-08-24T12:17:35.432Z,6.22
2018-08-24T12:20:05.837Z,7.12
2018-08-24T12:22:35.658Z,7.55
2018-08-24T12:25:05.443Z,6.55
2018-08-24T12:27:34.760Z,9.25
2018-08-24T12:30:04.154Z,13.60
2018-08-24T12:32:33.368Z,14.85
2018-08-24T12:35:02.752Z,10.13
2018-08-24T12:37:36.212Z,9.25
2018-08-24T12:40:05.741Z,7.70
2018-08-24T12:42:34.894Z,9.95
2018-08-24T12:45:04.389Z,8.98
2018-08-24T12:47:33.635Z,10.40
2018-08-24T12:50:02.890Z,8.85
2018-08-24T12:52:32.213Z,8.85
2018-08-24T12:55:02.029Z,9.75
2018-08-24T12:57:31.711Z,7.40
2018-08-24T13:00:01.637Z,6.67
2018-08-24T13:02:30.937Z,7.90
2018-08-24T13:05:00.093Z,7.87
2018-08-24T13:07:29.299Z,7.40
2018-08-24T13:09:59.081Z,6.72
2018-08-24T13:12:28.375Z,6.65
2018-08-24T13:14:58.080Z,5.42
2018-08-24T13:17:27.295Z,4.20
2018-08-24T13:19:56.508Z,6.22
2018-08-24T13:22:25.768Z,4.47
2018-08-24T13:24:55.011Z,4.40
2018-08-24T13:27:24.405Z,3.80
2018-08-24T13:29:53.689Z,4.17
2018-08-24T13:32:22.960Z,5.17
2018-08-24T13:34:52.210Z,6.42
2018-08-24T13:37:21.490Z,3.72
2018-08-24T13:39:50.873Z,3.58
2018-08-24T13:42:20.152Z,5.30
2018-08-24T13:44:49.407Z,3.35
2018-08-24T13:47:18.636Z,3.17
2018-08-24T13:49:48.155Z,3.20
2018-08-24T13:52:17.364Z,4.37
2018-08-24T13:54:47.324Z,3.37
2018-08-24T13:57:16.791Z,3.65
2018-08-24T13:59:45.983Z,3.80
2018-08-24T14:02:15.408Z,5.42
2018-08-24T14:04:44.608Z,5.05
2018-08-24T14:07:13.857Z,3.37
2018-08-24T14:09:43.120Z,3.42
2018-08-24T14:12:12.281Z,3.75
2018-08-24T14:14:41.564Z,3.42
2018-08-24T14:17:10.800Z,3.10
2018-08-24T14:19:40.028Z,4.92
2018-08-24T14:22:09.536Z,3.22
2018-08-24T14:24:38.917Z,3.05
2018-08-24T14:27:08.273Z,5.17
2018-08-24T14:29:37.460Z,4.85
2018-08-24T14:32:06.812Z,4.53
2018-08-24T14:34:35.979Z,4.75
2018-08-24T14:37:05.668Z,4.95
2018-08-24T14:39:35.308Z,4.58
2018-08-24T14:42:04.541Z,4.12
2018-08-24T14:44:33.724Z,4.40
2018-08-24T14:47:02.948Z,4.17
2018-08-24T14:49:32.184Z,4.12
2018-08-24T14:52:01.344Z,4.15
2018-08-24T14:54:30.544Z,4.45
2018-08-24T14:57:00.032Z,4.05
2018-08-24T14:59:29.208Z,4.45
2018-08-24T15:01:58.413Z,4.35
2018-08-24T15:04:27.666Z,4.12
2018-08-24T15:06:57.094Z,4.30
2018-08-24T15:09:26.408Z,4.20
2018-08-24T15:11:55.796Z,4.58
2018-08-24T15:14:25.039Z,4.40
2018-08-24T15:16:54.253Z,5.08
2018-08-24T15:19:23.692Z,5.10
2018-08-24T15:21:53.032Z,5.30
2018-08-24T15:24:22.361Z,5.53
2018-08-24T15:26:51.561Z,5.70
2018-08-24T15:29:20.983Z,5.78
2018-08-24T15:31:50.470Z,6.35
2018-08-24T15:34:19.631Z,6.60
2018-08-24T15:36:48.798Z,6.97
2018-08-24T15:39:18.080Z,7.17
2018-08-24T15:41:47.908Z,9.33
2018-08-24T15:44:17.109Z,8.15
2018-08-24T15:46:46.428Z,8.03
2018-08-24T15:49:15.592Z,7.33
2018-08-24T15:51:44.900Z,7.58
2018-08-24T15:54:14.089Z,8.13
2018-08-24T15:56:43.327Z,10.03
2018-08-24T15:59:12.580Z,9.03
2018-08-24T16:01:41.754Z,9.13
2018-08-24T16:04:10.943Z,9.80
2018-08-24T16:06:40.308Z,12.13
2018-08-24T16:09:10.566Z,10.30
2018-08-24T16:11:40.006Z,11.60
2018-08-24T16:14:09.413Z,17.65
2018-08-24T16:16:39.176Z,20.37
2018-08-24T16:19:09.556Z,20.77
2018-08-24T16:21:38.788Z,24.80
2018-08-24T16:24:08.035Z,24.27
2018-08-24T16:26:37.280Z,25.48
2018-08-24T16:29:06.955Z,27.40
2018-08-24T16:31:36.154Z,26.80
2018-08-24T16:34:05.500Z,28.98
2018-08-24T16:36:34.660Z,29.50
2018-08-24T16:39:04.467Z,29.23
2018-08-24T16:41:33.704Z,32.17
2018-08-24T16:44:02.888Z,31.95
2018-08-24T16:46:32.151Z,31.05
2018-08-24T16:49:01.479Z,32.10
2018-08-24T16:51:30.696Z,32.73
2018-08-24T16:53:59.992Z,33.73
2018-08-24T16:56:29.153Z,34.50
2018-08-24T16:58:58.328Z,33.83
2018-08-24T17:01:27.577Z,31.90
2018-08-24T17:03:56.858Z,30.82
2018-08-24T17:06:26.524Z,33.70
2018-08-24T17:08:55.722Z,34.70
2018-08-24T17:11:25.496Z,34.95
2018-08-24T17:13:54.772Z,33.05
2018-08-24T17:16:24.020Z,33.85
2018-08-24T17:18:53.340Z,35.30
2018-08-24T17:21:22.526Z,47.95
2018-08-24T17:23:51.732Z,47.33
2018-08-24T17:26:20.956Z,44.48
2018-08-24T17:28:50.298Z,41.08
2018-08-24T17:31:19.519Z,38.28
2018-08-24T17:33:49.013Z,36.58
2018-08-24T17:36:18.290Z,37.65
2018-08-24T17:38:47.636Z,38.15
2018-08-24T17:41:16.884Z,37.78
2018-08-24T17:43:46.154Z,39.27
2018-08-24T17:46:15.980Z,37.70
2018-08-24T17:48:45.520Z,40.83
2018-08-24T17:51:15.553Z,49.00
2018-08-24T17:53:44.933Z,68.70
2018-08-24T17:56:14.896Z,67.27
2018-08-24T17:58:44.133Z,57.85
2018-08-24T18:01:13.337Z,60.20
2018-08-24T18:03:42.544Z,52.62
2018-08-24T18:06:11.893Z,49.80
2018-08-24T18:08:41.153Z,40.03
2018-08-24T18:11:10.337Z,38.98
2018-08-24T18:13:39.577Z,42.23
2018-08-24T18:16:08.980Z,40.63
2018-08-24T18:18:38.393Z,35.10
2018-08-24T18:21:08.810Z,35.28
2018-08-24T18:23:38.176Z,34.40
2018-08-24T18:26:08.791Z,31.45
2018-08-24T18:28:38.193Z,30.20
2018-08-24T18:31:08.705Z,28.52
2018-08-24T18:33:38.064Z,28.95
2018-08-24T18:36:07.912Z,30.75
2018-08-24T18:38:37.144Z,35.15
2018-08-24T18:41:06.580Z,32.00
2018-08-24T18:43:35.762Z,30.05
2018-08-24T18:46:05.361Z,28.55
2018-08-24T18:48:34.639Z,29.12
2018-08-24T18:51:04.562Z,26.73
2018-08-24T18:53:33.292Z,25.53
2018-08-24T18:56:01.960Z,26.80
2018-08-24T18:58:30.787Z,25.50
2018-08-24T19:00:59.421Z,27.03
2018-08-24T19:03:28.089Z,24.80
2018-08-24T19:05:56.720Z,24.80
2018-08-24T19:08:26.126Z,25.30
2018-08-24T19:11:00.268Z,24.10
2018-08-24T19:13:29.037Z,24.47
2018-08-24T19:15:57.787Z,25.00
2018-08-24T19:18:31.733Z,25.63
2018-08-24T19:21:06.219Z,26.60
2018-08-24T19:23:34.844Z,27.00
2018-08-24T19:26:03.455Z,27.03
2018-08-24T19:28:37.635Z,27.80
2018-08-24T19:31:06.270Z,27.03
2018-08-24T19:33:34.913Z,28.03
2018-08-24T19:36:03.737Z,30.80
2018-08-24T19:38:32.349Z,30.67
2018-08-24T19:41:06.156Z,28.33
2018-08-24T19:43:34.873Z,31.13
2018-08-24T19:46:03.506Z,29.47
2018-08-24T19:48:37.389Z,30.00
2018-08-24T19:51:06.565Z,35.87
2018-08-24T19:53:35.205Z,33.40
2018-08-24T19:56:04.092Z,29.90
2018-08-24T19:58:38.047Z,31.07
2018-08-24T20:01:06.628Z,33.13
2018-08-24T20:03:35.234Z,31.43
2018-08-24T20:06:09.425Z,32.97
2018-08-24T20:08:43.536Z,36.90
2018-08-24T20:11:12.253Z,39.67
2018-08-24T20:13:40.986Z,44.20
2018-08-24T20:16:14.805Z,42.47
2018-08-24T20:18:43.528Z,39.03
2018-08-24T20:21:12.345Z,38.10
2018-08-24T20:23:40.999Z,45.37
2018-08-24T20:26:09.765Z,41.53
2018-08-24T20:28:38.514Z,47.47
2018-08-24T20:31:07.149Z,57.40
2018-08-24T20:33:35.853Z,52.90
2018-08-24T20:36:05.033Z,59.93
2018-08-24T20:38:33.724Z,64.20
2018-08-24T20:41:02.373Z,70.40
2018-08-24T20:43:31.238Z,70.10
2018-08-24T20:46:00.066Z,68.37
2018-08-24T20:48:28.680Z,72.50
2018-08-24T20:50:57.305Z,65.23
2018-08-24T20:53:26.118Z,65.03
2018-08-24T21:16:39.730Z,71.57
2018-08-24T21:19:09.095Z,66.95
2018-08-24T21:21:37.732Z,65.03
2018-08-24T21:24:07.324Z,62.65
2018-08-24T21:26:35.901Z,62.70
2018-08-24T21:29:05.061Z,59.33
2018-08-24T21:31:33.737Z,60.60
2018-08-24T21:34:02.498Z,60.47
2018-08-24T21:36:31.248Z,66.20
2018-08-24T21:38:59.856Z,63.43
2018-08-24T21:41:28.464Z,60.80
2018-08-24T21:43:57.121Z,63.20
2018-08-24T21:46:25.704Z,63.37
2018-08-24T21:48:54.395Z,70.17
2018-08-24T21:51:23.105Z,74.67
2018-08-24T21:53:51.887Z,74.23
2018-08-24T21:56:21.316Z,72.25
2018-08-24T21:58:50.502Z,68.37
2018-08-24T22:01:19.989Z,65.40
2018-08-24T22:03:48.617Z,59.17
2018-08-24T22:06:18.625Z,51.70
2018-08-24T22:08:47.875Z,41.23
2018-08-24T22:11:17.039Z,34.03
2018-08-24T22:13:45.713Z,24.10
2018-08-24T22:16:15.229Z,21.53
2018-08-24T22:18:44.488Z,19.67
2018-08-24T22:21:13.223Z,21.70
2018-08-24T22:23:42.479Z,23.43
2018-08-24T22:26:11.869Z,21.80
2018-08-24T22:28:41.903Z,24.07
2018-08-24T22:31:10.800Z,22.57
2018-08-24T22:33:39.492Z,21.50
2018-08-24T22:36:08.600Z,21.20
2018-08-24T22:38:37.384Z,22.33
2018-08-24T22:41:06.791Z,19.87
2018-08-24T22:43:36.478Z,22.13
2018-08-24T22:46:06.416Z,22.80
2018-08-24T22:48:35.579Z,24.13
2018-08-24T22:51:04.867Z,22.07
2018-08-24T22:53:33.572Z,22.70
2018-08-24T22:56:02.558Z,22.60
2018-08-24T22:58:31.280Z,24.53
2018-08-24T23:00:59.987Z,22.77
2018-08-24T23:03:28.791Z,24.87
2018-08-24T23:05:57.695Z,24.37
2018-08-24T23:08:26.593Z,24.43
2018-08-24T23:10:56.131Z,23.77
2018-08-24T23:13:24.997Z,24.20
2018-08-24T23:15:53.719Z,24.40
2018-08-24T23:18:23.195Z,23.57
2018-08-24T23:20:51.920Z,23.80
2018-08-24T23:23:21.473Z,22.83
2018-08-24T23:25:50.286Z,25.03
2018-08-24T23:28:18.984Z,23.90
2018-08-24T23:30:48.467Z,23.20
2018-08-24T23:33:17.174Z,24.10
2018-08-24T23:35:46.736Z,19.63
2018-08-24T23:38:15.584Z,18.87
2018-08-24T23:40:44.343Z,14.33
2018-08-24T23:43:13.070Z,11.60
2018-08-24T23:45:42.346Z,11.47
2018-08-24T23:48:11.274Z,11.73
2018-08-24T23:50:42.681Z,14.43
2018-08-24T23:53:11.512Z,12.13
2018-08-24T23:55:40.217Z,12.70
2018-08-24T23:58:09.293Z,12.40
